Grosse Pointe, Michigan
Current Conditions -  °F | °C
As of 9:53 PM on Thursday 27 Nov 2014 (Local Time) from KDET Reporting Station
Overcast Overcast  
Wind Chill: 23°   Ceiling: 3800
Heat Index: 29°   Visibility: 10mi
Dew Point: 17°   Wind: 6mph
Humidity: 61%   Direction: 310°NW
Pressure: 30.28"   Gusts: NA
Location:  42.39°N, 82.91°W
Report Text: KDET 280253Z 31005KT 10SM SCT030 BKN038 OVC060 M02/M08 A3028 RMK AO2 SLP262 T10171083 51016
Loading
Personal Weather Stations






























Interactive Weather Map New forecast layout! Learn more

10-Day Weather Forecast

Advertisements
Track Severe Weather on mobile